sensor_id;sensor_type;location;lat;lon;timestamp;pressure;altitude;pressure_sealevel;temperature;humidity
45074;BME280;31570;51.688;5.860;2023-03-20T00:00:24;101848.13;;;20.76;48.52
45074;BME280;31570;51.688;5.860;2023-03-20T00:02:50;101859.00;;;20.76;48.60
45074;BME280;31570;51.688;5.860;2023-03-20T00:05:20;101850.75;;;20.66;48.71
45074;BME280;31570;51.688;5.860;2023-03-20T00:07:47;101853.06;;;20.71;48.81
45074;BME280;31570;51.688;5.860;2023-03-20T00:10:16;101851.47;;;20.68;48.64
45074;BME280;31570;51.688;5.860;2023-03-20T00:12:45;101845.78;;;20.71;48.69
45074;BME280;31570;51.688;5.860;2023-03-20T00:15:23;101840.59;;;20.68;48.82
45074;BME280;31570;51.688;5.860;2023-03-20T00:17:51;101839.63;;;20.69;48.59
45074;BME280;31570;51.688;5.860;2023-03-20T00:20:18;101840.50;;;20.70;48.54
45074;BME280;31570;51.688;5.860;2023-03-20T00:22:45;101835.31;;;20.67;48.52
45074;BME280;31570;51.688;5.860;2023-03-20T00:25:16;101840.75;;;20.67;48.67
45074;BME280;31570;51.688;5.860;2023-03-20T00:27:44;101835.91;;;20.70;48.50
45074;BME280;31570;51.688;5.860;2023-03-20T00:30:24;101842.47;;;20.68;48.54
45074;BME280;31570;51.688;5.860;2023-03-20T00:32:55;101844.47;;;20.66;48.62
45074;BME280;31570;51.688;5.860;2023-03-20T00:35:26;101841.47;;;20.69;48.58
45074;BME280;31570;51.688;5.860;2023-03-20T00:37:54;101834.56;;;20.65;48.62
45074;BME280;31570;51.688;5.860;2023-03-20T00:40:21;101836.31;;;20.66;48.44
45074;BME280;31570;51.688;5.860;2023-03-20T00:43:02;101833.72;;;20.64;48.63
45074;BME280;31570;51.688;5.860;2023-03-20T00:45:31;101827.03;;;20.68;48.42
45074;BME280;31570;51.688;5.860;2023-03-20T00:48:00;101824.19;;;20.70;48.35
45074;BME280;31570;51.688;5.860;2023-03-20T00:50:29;101836.03;;;20.69;48.47
45074;BME280;31570;51.688;5.860;2023-03-20T00:52:57;101818.88;;;20.68;48.53
45074;BME280;31570;51.688;5.860;2023-03-20T00:55:27;101812.47;;;20.69;48.46
45074;BME280;31570;51.688;5.860;2023-03-20T00:57:57;101808.16;;;20.67;48.36
45074;BME280;31570;51.688;5.860;2023-03-20T01:03:24;101815.81;;;20.62;48.45
45074;BME280;31570;51.688;5.860;2023-03-20T01:05:51;101818.69;;;20.60;48.51
45074;BME280;31570;51.688;5.860;2023-03-20T01:08:21;101814.09;;;20.61;48.40
45074;BME280;31570;51.688;5.860;2023-03-20T01:10:52;101808.56;;;20.62;48.63
45074;BME280;31570;51.688;5.860;2023-03-20T01:13:26;101811.88;;;20.66;48.38
45074;BME280;31570;51.688;5.860;2023-03-20T01:15:55;101807.31;;;20.55;48.67
45074;BME280;31570;51.688;5.860;2023-03-20T01:18:24;101822.13;;;20.62;48.31
45074;BME280;31570;51.688;5.860;2023-03-20T01:20:52;101832.88;;;20.64;48.29
45074;BME280;31570;51.688;5.860;2023-03-20T01:23:20;101838.56;;;20.61;48.55
45074;BME280;31570;51.688;5.860;2023-03-20T01:25:49;101843.38;;;20.57;48.57
45074;BME280;31570;51.688;5.860;2023-03-20T01:28:19;101849.31;;;20.51;48.54
45074;BME280;31570;51.688;5.860;2023-03-20T01:30:47;101846.09;;;20.57;48.35
45074;BME280;31570;51.688;5.860;2023-03-20T01:33:18;101846.97;;;20.58;48.21
45074;BME280;31570;51.688;5.860;2023-03-20T01:35:50;101844.97;;;20.60;48.47
45074;BME280;31570;51.688;5.860;2023-03-20T01:38:20;101844.13;;;20.59;48.49
45074;BME280;31570;51.688;5.860;2023-03-20T01:40:57;101850.00;;;20.64;48.37
45074;BME280;31570;51.688;5.860;2023-03-20T01:43:27;101851.88;;;20.64;48.23
45074;BME280;31570;51.688;5.860;2023-03-20T01:51:21;101848.56;;;20.60;48.33
45074;BME280;31570;51.688;5.860;2023-03-20T01:53:55;101852.13;;;20.61;48.26
45074;BME280;31570;51.688;5.860;2023-03-20T01:56:24;101852.38;;;20.58;48.23
45074;BME280;31570;51.688;5.860;2023-03-20T01:58:59;101864.00;;;20.60;48.19
45074;BME280;31570;51.688;5.860;2023-03-20T02:01:28;101860.03;;;20.64;48.28
45074;BME280;31570;51.688;5.860;2023-03-20T02:03:55;101857.56;;;20.61;48.20
45074;BME280;31570;51.688;5.860;2023-03-20T02:06:41;101842.22;;;20.71;48.09
45074;BME280;31570;51.688;5.860;2023-03-20T02:09:22;101842.97;;;20.62;48.27
45074;BME280;31570;51.688;5.860;2023-03-20T02:11:49;101834.56;;;20.65;47.99
45074;BME280;31570;51.688;5.860;2023-03-20T02:14:19;101822.59;;;20.67;47.92
45074;BME280;31570;51.688;5.860;2023-03-20T02:16:58;101834.72;;;20.63;48.12
45074;BME280;31570;51.688;5.860;2023-03-20T02:26:06;101829.06;;;20.55;48.17
45074;BME280;31570;51.688;5.860;2023-03-20T02:37:12;101845.25;;;20.57;48.15
45074;BME280;31570;51.688;5.860;2023-03-20T02:39:44;101850.41;;;20.60;48.08
45074;BME280;31570;51.688;5.860;2023-03-20T02:45:21;101864.47;;;20.65;47.99
45074;BME280;31570;51.688;5.860;2023-03-20T02:50:59;101858.41;;;20.61;47.91
45074;BME280;31570;51.688;5.860;2023-03-20T02:53:39;101855.09;;;20.58;47.85
45074;BME280;31570;51.688;5.860;2023-03-20T02:56:31;101851.28;;;20.60;47.92
45074;BME280;31570;51.688;5.860;2023-03-20T03:01:52;101833.06;;;20.72;47.77
45074;BME280;31570;51.688;5.860;2023-03-20T03:04:35;101831.34;;;20.71;47.79
45074;BME280;31570;51.688;5.860;2023-03-20T03:07:05;101836.69;;;20.61;47.85
45074;BME280;31570;51.688;5.860;2023-03-20T03:09:54;101819.03;;;20.67;47.59
45074;BME280;31570;51.688;5.860;2023-03-20T03:12:27;101832.13;;;20.62;47.92
45074;BME280;31570;51.688;5.860;2023-03-20T03:15:03;101830.59;;;20.69;47.58
45074;BME280;31570;51.688;5.860;2023-03-20T03:17:33;101836.44;;;20.64;47.75
45074;BME280;31570;51.688;5.860;2023-03-20T03:20:05;101827.84;;;20.59;47.82
45074;BME280;31570;51.688;5.860;2023-03-20T03:22:34;101839.22;;;20.53;47.87
45074;BME280;31570;51.688;5.860;2023-03-20T03:25:01;101828.69;;;20.60;47.88
45074;BME280;31570;51.688;5.860;2023-03-20T03:27:35;101823.38;;;20.58;47.80
45074;BME280;31570;51.688;5.860;2023-03-20T03:30:26;101809.19;;;20.55;47.73
45074;BME280;31570;51.688;5.860;2023-03-20T03:35:37;101800.25;;;20.64;47.63
45074;BME280;31570;51.688;5.860;2023-03-20T03:38:57;101793.38;;;20.60;47.78
45074;BME280;31570;51.688;5.860;2023-03-20T03:44:12;101770.19;;;20.56;47.65
45074;BME280;31570;51.688;5.860;2023-03-20T03:46:50;101769.63;;;20.62;47.77
45074;BME280;31570;51.688;5.860;2023-03-20T03:49:23;101781.78;;;20.58;47.84
45074;BME280;31570;51.688;5.860;2023-03-20T03:51:54;101779.53;;;20.63;47.56
45074;BME280;31570;51.688;5.860;2023-03-20T03:54:27;101785.56;;;20.66;47.50
45074;BME280;31570;51.688;5.860;2023-03-20T03:57:25;101785.94;;;20.62;47.64
45074;BME280;31570;51.688;5.860;2023-03-20T03:59:55;101776.06;;;20.61;47.64
45074;BME280;31570;51.688;5.860;2023-03-20T04:02:23;101777.34;;;20.57;47.59
45074;BME280;31570;51.688;5.860;2023-03-20T04:04:51;101774.88;;;20.54;47.79
45074;BME280;31570;51.688;5.860;2023-03-20T04:07:19;101774.75;;;20.55;47.75
45074;BME280;31570;51.688;5.860;2023-03-20T04:09:47;101784.63;;;20.56;47.80
45074;BME280;31570;51.688;5.860;2023-03-20T04:12:38;101778.34;;;20.56;47.83
45074;BME280;31570;51.688;5.860;2023-03-20T04:15:09;101778.69;;;20.62;47.53
45074;BME280;31570;51.688;5.860;2023-03-20T04:17:36;101786.94;;;20.61;47.50
45074;BME280;31570;51.688;5.860;2023-03-20T04:20:04;101778.06;;;20.59;47.69
45074;BME280;31570;51.688;5.860;2023-03-20T04:22:31;101781.50;;;20.61;47.47
45074;BME280;31570;51.688;5.860;2023-03-20T04:25:14;101774.69;;;20.66;47.48
45074;BME280;31570;51.688;5.860;2023-03-20T04:27:40;101784.72;;;20.66;47.27
45074;BME280;31570;51.688;5.860;2023-03-20T04:30:18;101770.66;;;20.61;47.29
45074;BME280;31570;51.688;5.860;2023-03-20T04:33:14;101774.09;;;20.63;47.57
45074;BME280;31570;51.688;5.860;2023-03-20T04:35:57;101765.34;;;20.59;47.60
45074;BME280;31570;51.688;5.860;2023-03-20T04:38:24;101754.81;;;20.66;47.30
45074;BME280;31570;51.688;5.860;2023-03-20T04:40:52;101757.53;;;20.66;47.23
45074;BME280;31570;51.688;5.860;2023-03-20T04:43:19;101753.22;;;20.63;47.44
45074;BME280;31570;51.688;5.860;2023-03-20T04:45:46;101765.69;;;20.66;47.32
45074;BME280;31570;51.688;5.860;2023-03-20T04:48:13;101762.41;;;20.72;47.26
45074;BME280;31570;51.688;5.860;2023-03-20T04:50:40;101756.28;;;20.70;47.18
45074;BME280;31570;51.688;5.860;2023-03-20T04:53:06;101745.53;;;20.68;47.16
45074;BME280;31570;51.688;5.860;2023-03-20T04:55:33;101744.16;;;20.74;47.09
45074;BME280;31570;51.688;5.860;2023-03-20T04:58:00;101740.25;;;20.67;47.36
45074;BME280;31570;51.688;5.860;2023-03-20T05:00:27;101739.22;;;20.68;47.25
45074;BME280;31570;51.688;5.860;2023-03-20T05:02:54;101750.59;;;20.73;46.98
45074;BME280;31570;51.688;5.860;2023-03-20T05:05:20;101755.09;;;20.63;47.21
45074;BME280;31570;51.688;5.860;2023-03-20T05:07:50;101759.78;;;20.61;47.26
45074;BME280;31570;51.688;5.860;2023-03-20T05:10:30;101753.09;;;20.65;46.93
45074;BME280;31570;51.688;5.860;2023-03-20T05:13:03;101759.38;;;20.65;47.26
45074;BME280;31570;51.688;5.860;2023-03-20T05:15:52;101752.97;;;20.66;47.05
45074;BME280;31570;51.688;5.860;2023-03-20T05:18:32;101753.22;;;20.63;47.22
45074;BME280;31570;51.688;5.860;2023-03-20T05:21:32;101761.97;;;20.67;47.07
45074;BME280;31570;51.688;5.860;2023-03-20T05:24:05;101757.81;;;20.63;47.20
45074;BME280;31570;51.688;5.860;2023-03-20T05:26:50;101761.13;;;20.66;47.20
45074;BME280;31570;51.688;5.860;2023-03-20T05:29:40;101759.25;;;20.67;47.10
45074;BME280;31570;51.688;5.860;2023-03-20T05:32:19;101760.72;;;20.71;47.00
45074;BME280;31570;51.688;5.860;2023-03-20T05:35:18;101756.81;;;20.64;46.88
45074;BME280;31570;51.688;5.860;2023-03-20T05:37:52;101758.78;;;20.62;46.97
45074;BME280;31570;51.688;5.860;2023-03-20T05:40:36;101750.38;;;20.65;46.89
45074;BME280;31570;51.688;5.860;2023-03-20T05:43:19;101752.69;;;20.69;46.91
45074;BME280;31570;51.688;5.860;2023-03-20T05:46:15;101751.09;;;20.67;47.00
45074;BME280;31570;51.688;5.860;2023-03-20T05:49:00;101747.53;;;20.66;47.00
45074;BME280;31570;51.688;5.860;2023-03-20T05:51:46;101754.34;;;20.61;47.23
45074;BME280;31570;51.688;5.860;2023-03-20T05:54:35;101764.22;;;20.62;46.97
45074;BME280;31570;51.688;5.860;2023-03-20T05:57:22;101769.25;;;20.66;46.83
45074;BME280;31570;51.688;5.860;2023-03-20T05:59:48;101770.13;;;20.67;47.05
45074;BME280;31570;51.688;5.860;2023-03-20T06:02:38;101778.53;;;20.64;46.92
45074;BME280;31570;51.688;5.860;2023-03-20T06:05:25;101776.56;;;20.66;46.92
45074;BME280;31570;51.688;5.860;2023-03-20T06:07:51;101786.81;;;20.62;46.92
45074;BME280;31570;51.688;5.860;2023-03-20T06:10:18;101785.50;;;20.57;46.93
45074;BME280;31570;51.688;5.860;2023-03-20T06:12:47;101782.97;;;20.65;46.97
45074;BME280;31570;51.688;5.860;2023-03-20T06:15:15;101774.22;;;20.61;47.05
45074;BME280;31570;51.688;5.860;2023-03-20T06:17:49;101784.81;;;20.64;46.82
45074;BME280;31570;51.688;5.860;2023-03-20T06:20:16;101786.75;;;20.53;47.46
45074;BME280;31570;51.688;5.860;2023-03-20T06:22:43;101793.38;;;20.60;47.17
45074;BME280;31570;51.688;5.860;2023-03-20T06:25:13;101798.81;;;20.60;47.06
45074;BME280;31570;51.688;5.860;2023-03-20T06:27:42;101802.50;;;20.59;47.04
45074;BME280;31570;51.688;5.860;2023-03-20T06:30:09;101796.81;;;20.62;46.86
45074;BME280;31570;51.688;5.860;2023-03-20T06:32:38;101803.25;;;20.61;46.79
45074;BME280;31570;51.688;5.860;2023-03-20T06:35:09;101794.69;;;20.65;46.69
45074;BME280;31570;51.688;5.860;2023-03-20T06:37:41;101799.44;;;20.52;47.16
45074;BME280;31570;51.688;5.860;2023-03-20T06:40:13;101806.84;;;20.50;47.16
45074;BME280;31570;51.688;5.860;2023-03-20T06:42:39;101799.53;;;20.62;47.01
45074;BME280;31570;51.688;5.860;2023-03-20T06:45:07;101809.19;;;20.55;47.02
45074;BME280;31570;51.688;5.860;2023-03-20T06:47:42;101804.09;;;20.61;46.99
45074;BME280;31570;51.688;5.860;2023-03-20T06:50:09;101807.22;;;20.57;47.07
45074;BME280;31570;51.688;5.860;2023-03-20T06:52:36;101809.19;;;20.55;46.89
45074;BME280;31570;51.688;5.860;2023-03-20T06:55:18;101799.53;;;20.62;46.92
45074;BME280;31570;51.688;5.860;2023-03-20T06:57:46;101816.97;;;20.59;46.98
45074;BME280;31570;51.688;5.860;2023-03-20T07:00:16;101812.84;;;20.65;46.88
45074;BME280;31570;51.688;5.860;2023-03-20T07:02:43;101806.44;;;20.66;46.62
45074;BME280;31570;51.688;5.860;2023-03-20T07:05:13;101815.31;;;20.68;46.68
45074;BME280;31570;51.688;5.860;2023-03-20T07:07:40;101817.06;;;20.58;46.73
45074;BME280;31570;51.688;5.860;2023-03-20T07:10:07;101810.88;;;20.67;46.61
45074;BME280;31570;51.688;5.860;2023-03-20T07:12:35;101820.06;;;20.76;46.45
45074;BME280;31570;51.688;5.860;2023-03-20T07:15:03;101820.22;;;20.74;46.42
45074;BME280;31570;51.688;5.860;2023-03-20T07:17:31;101826.78;;;20.71;46.62
45074;BME280;31570;51.688;5.860;2023-03-20T07:19:58;101816.41;;;20.65;46.58
45074;BME280;31570;51.688;5.860;2023-03-20T07:22:26;101823.72;;;20.65;46.82
45074;BME280;31570;51.688;5.860;2023-03-20T07:28:33;101836.69;;;20.61;46.84
45074;BME280;31570;51.688;5.860;2023-03-20T07:31:30;101837.69;;;20.60;46.84
45074;BME280;31570;51.688;5.860;2023-03-20T07:34:07;101836.69;;;20.61;46.92
45074;BME280;31570;51.688;5.860;2023-03-20T07:36:34;101836.94;;;20.58;46.85
45074;BME280;31570;51.688;5.860;2023-03-20T07:39:01;101830.66;;;20.58;46.88
45074;BME280;31570;51.688;5.860;2023-03-20T07:41:29;101850.28;;;20.61;46.97
45074;BME280;31570;51.688;5.860;2023-03-20T07:44:01;101842.00;;;20.63;46.90
45074;BME280;31570;51.688;5.860;2023-03-20T07:46:46;101833.88;;;20.63;46.76
45074;BME280;31570;51.688;5.860;2023-03-20T07:49:17;101841.78;;;20.55;46.93
45074;BME280;31570;51.688;5.860;2023-03-20T07:51:45;101830.81;;;20.56;46.75
45074;BME280;31570;51.688;5.860;2023-03-20T07:54:13;101835.50;;;20.54;46.70
45074;BME280;31570;51.688;5.860;2023-03-20T07:56:40;101832.38;;;20.59;46.66
45074;BME280;31570;51.688;5.860;2023-03-20T07:59:07;101835.84;;;20.49;46.81
45074;BME280;31570;51.688;5.860;2023-03-20T08:01:34;101831.50;;;20.58;46.75
45074;BME280;31570;51.688;5.860;2023-03-20T08:04:01;101834.13;;;20.60;46.61
45074;BME280;31570;51.688;5.860;2023-03-20T08:06:28;101828.34;;;20.53;46.99
45074;BME280;31570;51.688;5.860;2023-03-20T08:08:54;101835.75;;;20.51;47.07
45074;BME280;31570;51.688;5.860;2023-03-20T08:11:21;101829.47;;;20.51;46.92
45074;BME280;31570;51.688;5.860;2023-03-20T08:13:49;101835.75;;;20.51;46.84
45074;BME280;31570;51.688;5.860;2023-03-20T08:16:15;101833.13;;;20.49;47.03
45074;BME280;31570;51.688;5.860;2023-03-20T08:18:42;101837.47;;;20.52;47.01
45074;BME280;31570;51.688;5.860;2023-03-20T08:21:09;101840.19;;;20.52;46.72
45074;BME280;31570;51.688;5.860;2023-03-20T08:23:36;101835.13;;;20.47;47.08
45074;BME280;31570;51.688;5.860;2023-03-20T08:26:02;101837.22;;;20.55;46.78
45074;BME280;31570;51.688;5.860;2023-03-20T08:28:29;101834.13;;;20.60;46.42
45074;BME280;31570;51.688;5.860;2023-03-20T08:31:12;101827.84;;;20.59;46.66
45074;BME280;31570;51.688;5.860;2023-03-20T08:33:38;101833.53;;;20.56;46.68
45074;BME280;31570;51.688;5.860;2023-03-20T08:36:05;101832.66;;;20.56;46.80
45074;BME280;31570;51.688;5.860;2023-03-20T08:38:32;101834.63;;;20.54;46.90
45074;BME280;31570;51.688;5.860;2023-03-20T08:40:59;101835.84;;;20.49;46.84
45074;BME280;31570;51.688;5.860;2023-03-20T08:43:25;101837.72;;;20.49;46.90
45074;BME280;31570;51.688;5.860;2023-03-20T08:45:52;101835.50;;;20.54;46.71
45074;BME280;31570;51.688;5.860;2023-03-20T08:48:19;101832.53;;;20.57;46.76
45074;BME280;31570;51.688;5.860;2023-03-20T08:50:47;101835.56;;;20.64;46.48
45074;BME280;31570;51.688;5.860;2023-03-20T08:53:13;101831.84;;;20.65;46.36
45074;BME280;31570;51.688;5.860;2023-03-20T08:55:40;101823.50;;;20.57;46.67
45074;BME280;31570;51.688;5.860;2023-03-20T08:58:06;101831.84;;;20.65;46.51
45074;BME280;31570;51.688;5.860;2023-03-20T09:00:33;101834.72;;;20.63;46.53
45074;BME280;31570;51.688;5.860;2023-03-20T09:03:01;101827.44;;;20.64;46.48
45074;BME280;31570;51.688;5.860;2023-03-20T09:05:27;101818.53;;;20.62;46.50
45074;BME280;31570;51.688;5.860;2023-03-20T09:07:54;101819.19;;;20.54;46.38
45074;BME280;31570;51.688;5.860;2023-03-20T09:10:21;101819.53;;;20.61;46.44
45074;BME280;31570;51.688;5.860;2023-03-20T09:12:47;101822.75;;;20.66;46.20
45074;BME280;31570;51.688;5.860;2023-03-20T09:15:14;101820.41;;;20.61;46.22
45074;BME280;31570;51.688;5.860;2023-03-20T09:17:40;101818.59;;;20.51;46.71
45074;BME280;31570;51.688;5.860;2023-03-20T09:20:07;101826.94;;;20.59;46.28
45074;BME280;31570;51.688;5.860;2023-03-20T09:22:34;101832.66;;;20.56;46.32
45074;BME280;31570;51.688;5.860;2023-03-20T09:25:01;101826.34;;;20.55;46.45
45074;BME280;31570;51.688;5.860;2023-03-20T09:27:27;101818.81;;;20.47;46.57
45074;BME280;31570;51.688;5.860;2023-03-20T09:29:54;101824.25;;;20.47;46.41
45074;BME280;31570;51.688;5.860;2023-03-20T09:32:20;101826.84;;;20.49;46.74
45074;BME280;31570;51.688;5.860;2023-03-20T09:34:47;101832.91;;;20.53;46.57
45074;BME280;31570;51.688;5.860;2023-03-20T09:37:14;101831.28;;;20.50;46.65
45074;BME280;31570;51.688;5.860;2023-03-20T09:39:40;101823.78;;;20.54;46.52
45074;BME280;31570;51.688;5.860;2023-03-20T09:47:43;101838.09;;;20.56;46.21
45074;BME280;31570;51.688;5.860;2023-03-20T09:50:17;101842.91;;;20.52;46.44
45074;BME280;31570;51.688;5.860;2023-03-20T09:53:02;101845.97;;;20.47;46.45
45074;BME280;31570;51.688;5.860;2023-03-20T09:55:38;101845.75;;;20.51;46.37
45074;BME280;31570;51.688;5.860;2023-03-20T09:58:12;101853.66;;;20.42;46.76
45074;BME280;31570;51.688;5.860;2023-03-20T10:00:44;101846.22;;;20.44;46.71
45074;BME280;31570;51.688;5.860;2023-03-20T10:03:18;101845.75;;;20.51;46.33
45074;BME280;31570;51.688;5.860;2023-03-20T10:06:06;101852.03;;;20.51;46.35
45074;BME280;31570;51.688;5.860;2023-03-20T10:08:37;101855.50;;;20.53;46.41
45074;BME280;31570;51.688;5.860;2023-03-20T10:19:29;101857.38;;;20.53;46.30
45074;BME280;31570;51.688;5.860;2023-03-20T10:22:10;101847.22;;;20.55;46.16
45074;BME280;31570;51.688;5.860;2023-03-20T10:24:42;101845.50;;;20.54;46.22
45074;BME280;31570;51.688;5.860;2023-03-20T10:27:19;101850.69;;;20.57;46.34
45074;BME280;31570;51.688;5.860;2023-03-20T10:32:37;101838.09;;;20.44;46.46
45074;BME280;31570;51.688;5.860;2023-03-20T10:35:22;101840.53;;;20.47;46.35
45074;BME280;31570;51.688;5.860;2023-03-20T10:40:41;101832.41;;;20.47;46.54
45074;BME280;31570;51.688;5.860;2023-03-20T10:43:30;101831.53;;;20.47;46.41
45074;BME280;31570;51.688;5.860;2023-03-20T10:46:07;101837.09;;;20.45;46.48
45074;BME280;31570;51.688;5.860;2023-03-20T10:51:50;101835.53;;;20.32;46.74
45074;BME280;31570;51.688;5.860;2023-03-20T10:54:29;101830.69;;;20.35;46.61
45074;BME280;31570;51.688;5.860;2023-03-20T10:56:59;101835.63;;;20.41;46.69
45074;BME280;31570;51.688;5.860;2023-03-20T11:00:02;101829.34;;;20.41;46.54
45074;BME280;31570;51.688;5.860;2023-03-20T11:02:30;101825.63;;;20.42;46.58
45074;BME280;31570;51.688;5.860;2023-03-20T11:05:09;101830.09;;;20.43;46.59
45074;BME280;31570;51.688;5.860;2023-03-20T11:07:46;101828.97;;;20.34;46.52
45074;BME280;31570;51.688;5.860;2023-03-20T11:10:15;101827.97;;;20.35;46.69
45074;BME280;31570;51.688;5.860;2023-03-20T11:12:47;101826.75;;;20.39;46.78
45074;BME280;31570;51.688;5.860;2023-03-20T11:15:26;101829.22;;;20.42;46.71
45074;BME280;31570;51.688;5.860;2023-03-20T11:17:56;101818.88;;;20.36;46.73
45074;BME280;31570;51.688;5.860;2023-03-20T11:20:25;101824.56;;;20.33;46.71
45074;BME280;31570;51.688;5.860;2023-03-20T11:23:01;101821.59;;;20.36;46.81
45074;BME280;31570;51.688;5.860;2023-03-20T11:25:31;101818.28;;;20.33;46.90
45074;BME280;31570;51.688;5.860;2023-03-20T11:28:40;101810.97;;;20.33;46.74
45074;BME280;31570;51.688;5.860;2023-03-20T11:33:49;101808.38;;;20.32;46.87
45074;BME280;31570;51.688;5.860;2023-03-20T11:36:29;101802.56;;;20.36;46.37
45074;BME280;31570;51.688;5.860;2023-03-20T11:39:15;101807.25;;;20.34;46.81
45074;BME280;31570;51.688;5.860;2023-03-20T11:41:55;101802.22;;;20.30;46.89
45074;BME280;31570;51.688;5.860;2023-03-20T11:44:27;101798.13;;;20.35;46.83
45074;BME280;31570;51.688;5.860;2023-03-20T11:47:09;101804.19;;;20.39;46.77
45074;BME280;31570;51.688;5.860;2023-03-20T11:50:26;101796.66;;;20.31;46.85
45074;BME280;31570;51.688;5.860;2023-03-20T11:52:55;101791.72;;;20.36;46.71
45074;BME280;31570;51.688;5.860;2023-03-20T11:55:31;101794.44;;;20.36;46.78
45074;BME280;31570;51.688;5.860;2023-03-20T11:58:00;101785.44;;;20.36;46.75
45074;BME280;31570;51.688;5.860;2023-03-20T12:00:35;101782.13;;;20.32;46.84
45074;BME280;31570;51.688;5.860;2023-03-20T12:03:02;101789.00;;;20.36;46.72
45074;BME280;31570;51.688;5.860;2023-03-20T12:05:36;101781.81;;;20.35;46.58
45074;BME280;31570;51.688;5.860;2023-03-20T12:08:09;101782.56;;;20.37;46.54
45074;BME280;31570;51.688;5.860;2023-03-20T12:10:41;101787.88;;;20.39;46.66
45074;BME280;31570;51.688;5.860;2023-03-20T12:13:26;101782.81;;;20.34;46.71
45074;BME280;31570;51.688;5.860;2023-03-20T12:16:00;101778.16;;;20.36;46.69
45074;BME280;31570;51.688;5.860;2023-03-20T12:18:34;101779.59;;;20.40;46.67
45074;BME280;31570;51.688;5.860;2023-03-20T12:21:14;101783.31;;;20.39;46.66
45074;BME280;31570;51.688;5.860;2023-03-20T12:28:50;101770.72;;;20.38;46.61
45074;BME280;31570;51.688;5.860;2023-03-20T12:31:25;101771.09;;;20.34;46.74
45074;BME280;31570;51.688;5.860;2023-03-20T12:34:20;101765.94;;;20.31;46.91
45074;BME280;31570;51.688;5.860;2023-03-20T12:36:50;101768.00;;;20.38;46.64
45074;BME280;31570;51.688;5.860;2023-03-20T12:39:30;101760.72;;;20.39;46.72
45074;BME280;31570;51.688;5.860;2023-03-20T12:44:48;101762.19;;;20.43;46.62
45074;BME280;31570;51.688;5.860;2023-03-20T12:49:49;101746.50;;;20.46;46.57
45074;BME280;31570;51.688;5.860;2023-03-20T13:00:25;101752.50;;;20.29;47.02
45074;BME280;31570;51.688;5.860;2023-03-20T13:03:09;101749.38;;;20.34;46.81
45074;BME280;31570;51.688;5.860;2023-03-20T13:08:27;101739.88;;;20.39;46.73
45074;BME280;31570;51.688;5.860;2023-03-20T13:11:09;101733.59;;;20.39;46.65
45074;BME280;31570;51.688;5.860;2023-03-20T13:16:36;101722.38;;;20.32;46.65
45074;BME280;31570;51.688;5.860;2023-03-20T13:24:29;101724.69;;;20.37;46.72
45074;BME280;31570;51.688;5.860;2023-03-20T13:27:25;101729.38;;;20.35;46.69
45074;BME280;31570;51.688;5.860;2023-03-20T13:30:06;101722.09;;;20.35;46.55
45074;BME280;31570;51.688;5.860;2023-03-20T13:38:06;101725.47;;;20.28;46.91
45074;BME280;31570;51.688;5.860;2023-03-20T13:40:41;101716.94;;;20.32;46.63
45074;BME280;31570;51.688;5.860;2023-03-20T13:45:43;101711.19;;;20.25;47.06
45074;BME280;31570;51.688;5.860;2023-03-20T13:48:23;101700.94;;;20.29;47.04
45074;BME280;31570;51.688;5.860;2023-03-20T13:51:06;101698.22;;;20.29;46.88
45074;BME280;31570;51.688;5.860;2023-03-20T13:56:40;101696.19;;;20.31;47.03
45074;BME280;31570;51.688;5.860;2023-03-20T14:05:10;101680.41;;;20.36;46.85
45074;BME280;31570;51.688;5.860;2023-03-20T14:07:41;101686.69;;;20.37;46.77
45074;BME280;31570;51.688;5.860;2023-03-20T14:12:55;101684.09;;;20.35;46.81
45074;BME280;31570;51.688;5.860;2023-03-20T14:15:26;101696.69;;;20.36;46.68
45074;BME280;31570;51.688;5.860;2023-03-20T14:17:53;101692.97;;;20.37;46.74
45074;BME280;31570;51.688;5.860;2023-03-20T14:20:33;101686.34;;;20.30;46.87
45074;BME280;31570;51.688;5.860;2023-03-20T14:23:01;101674.97;;;20.36;46.84
45074;BME280;31570;51.688;5.860;2023-03-20T14:25:33;101677.69;;;20.36;46.73
45074;BME280;31570;51.688;5.860;2023-03-20T14:28:07;101674.38;;;20.33;46.95
45074;BME280;31570;51.688;5.860;2023-03-20T14:30:48;101680.66;;;20.33;46.92
45074;BME280;31570;51.688;5.860;2023-03-20T14:38:28;101672.97;;;20.38;46.71
45074;BME280;31570;51.688;5.860;2023-03-20T14:43:51;101656.81;;;20.37;46.87
45074;BME280;31570;51.688;5.860;2023-03-20T14:46:41;101648.53;;;20.38;46.85
45074;BME280;31570;51.688;5.860;2023-03-20T14:57:43;101645.28;;;20.44;46.61
45074;BME280;31570;51.688;5.860;2023-03-20T15:00:25;101638.41;;;20.40;46.72
45074;BME280;31570;51.688;5.860;2023-03-20T15:03:06;101638.13;;;20.43;46.67
45074;BME280;31570;51.688;5.860;2023-03-20T15:05:36;101641.13;;;20.40;46.71
45074;BME280;31570;51.688;5.860;2023-03-20T15:08:09;101636.69;;;20.39;46.65
45074;BME280;31570;51.688;5.860;2023-03-20T15:10:44;101650.38;;;20.38;46.91
45074;BME280;31570;51.688;5.860;2023-03-20T15:13:12;101638.81;;;20.36;46.75
45074;BME280;31570;51.688;5.860;2023-03-20T15:16:02;101645.47;;;20.32;46.75
45074;BME280;31570;51.688;5.860;2023-03-20T15:18:46;101643.41;;;20.45;46.58
45074;BME280;31570;51.688;5.860;2023-03-20T15:21:28;101645.53;;;20.41;46.47
45074;BME280;31570;51.688;5.860;2023-03-20T15:23:57;101643.56;;;20.43;46.61
45074;BME280;31570;51.688;5.860;2023-03-20T15:26:25;101631.38;;;20.38;46.53
45074;BME280;31570;51.688;5.860;2023-03-20T15:28:58;101636.94;;;20.36;46.69
45074;BME280;31570;51.688;5.860;2023-03-20T15:31:31;101639.06;;;20.33;46.92
45074;BME280;31570;51.688;5.860;2023-03-20T15:33:59;101637.47;;;20.30;46.83